Startpagina
METAR-TAF:

METAR-TAF

Vliegvelden :

Middleton Island, Alaska, Verenigde Staten

breedte: 59-26N, lengte: 146-18W, hoogte: 27 m

Actueel weer

Dit bericht is 26 minuten geleden gemaakt, om 12:51 UTC
Wind 5 kt uit het zuiden
Temperatuur 11°C
Vochtigheid 100%
Druk 1018 hPa
Zicht: 16.1 km
Geheel bewolkt op 9000 ft

METAR: PAMD 171251Z AUTO 19005KT 10SM OVC090 11/11 A3006 RMK AO2 SLP170 T01110106

Tijdstip: 05:17 (13:17 UTC)


TAF: ontbreekt

Waarnemingen en weersverwachtingen van meer dan 4000 vliegvelden (METAR en TAF).

De beschikbare stations zijn de gele en rode punten op de kaart.

Ga met uw muis naar het station om de naam te zien.

Klik dan om waarnemingen en weersverwachtingen te zien.

kaart wijzigen: klik op de groene knoppen met een zwart kruis om in te zoomen, op de groene knop met een streepje om uit te zoomen of op de groene pijlen voor aangrenzende kaarten.


METAR-TAF: